sensor_id;sensor_type;location;lat;lon;timestamp;P1;durP1;ratioP1;P2;durP2;ratioP2
27979;SDS011;15315;50.836;4.430;2023-02-28T00:02:18;11.45;;;5.20;;
27979;SDS011;15315;50.836;4.430;2023-02-28T00:12:18;9.65;;;4.82;;
27979;SDS011;15315;50.836;4.430;2023-02-28T00:22:19;13.38;;;5.15;;
27979;SDS011;15315;50.836;4.430;2023-02-28T00:32:21;11.20;;;4.88;;
27979;SDS011;15315;50.836;4.430;2023-02-28T00:42:22;6.82;;;4.82;;
27979;SDS011;15315;50.836;4.430;2023-02-28T00:52:22;12.63;;;5.35;;
27979;SDS011;15315;50.836;4.430;2023-02-28T01:02:23;11.88;;;4.80;;
27979;SDS011;15315;50.836;4.430;2023-02-28T01:12:23;11.73;;;5.50;;
27979;SDS011;15315;50.836;4.430;2023-02-28T01:22:24;10.88;;;5.10;;
27979;SDS011;15315;50.836;4.430;2023-02-28T01:32:24;12.27;;;5.32;;
27979;SDS011;15315;50.836;4.430;2023-02-28T01:42:25;14.57;;;5.35;;
27979;SDS011;15315;50.836;4.430;2023-02-28T01:52:25;10.93;;;5.47;;
27979;SDS011;15315;50.836;4.430;2023-02-28T02:02:27;12.20;;;5.57;;
27979;SDS011;15315;50.836;4.430;2023-02-28T02:12:39;12.60;;;5.47;;
27979;SDS011;15315;50.836;4.430;2023-02-28T02:43:48;12.95;;;6.07;;
27979;SDS011;15315;50.836;4.430;2023-02-28T02:53:55;12.75;;;6.35;;
27979;SDS011;15315;50.836;4.430;2023-02-28T03:04:22;11.60;;;6.57;;
27979;SDS011;15315;50.836;4.430;2023-02-28T03:14:40;12.38;;;6.82;;
27979;SDS011;15315;50.836;4.430;2023-02-28T03:25:01;11.18;;;6.65;;
27979;SDS011;15315;50.836;4.430;2023-02-28T03:35:19;15.75;;;8.05;;
27979;SDS011;15315;50.836;4.430;2023-02-28T03:45:24;13.20;;;7.23;;
27979;SDS011;15315;50.836;4.430;2023-02-28T03:55:28;19.73;;;7.82;;
27979;SDS011;15315;50.836;4.430;2023-02-28T04:05:50;14.23;;;7.40;;
27979;SDS011;15315;50.836;4.430;2023-02-28T04:15:52;17.53;;;8.00;;
27979;SDS011;15315;50.836;4.430;2023-02-28T04:25:54;16.73;;;8.43;;
27979;SDS011;15315;50.836;4.430;2023-02-28T04:35:59;17.92;;;8.98;;
27979;SDS011;15315;50.836;4.430;2023-02-28T04:46:01;18.65;;;9.07;;
27979;SDS011;15315;50.836;4.430;2023-02-28T04:56:04;17.98;;;8.68;;
27979;SDS011;15315;50.836;4.430;2023-02-28T05:06:06;19.20;;;9.07;;
27979;SDS011;15315;50.836;4.430;2023-02-28T05:16:07;17.88;;;9.35;;
27979;SDS011;15315;50.836;4.430;2023-02-28T05:26:07;16.00;;;8.80;;
27979;SDS011;15315;50.836;4.430;2023-02-28T05:36:08;20.23;;;9.60;;
27979;SDS011;15315;50.836;4.430;2023-02-28T05:46:09;16.15;;;8.60;;
27979;SDS011;15315;50.836;4.430;2023-02-28T05:56:10;16.60;;;9.15;;
27979;SDS011;15315;50.836;4.430;2023-02-28T06:06:11;15.00;;;8.32;;
27979;SDS011;15315;50.836;4.430;2023-02-28T06:16:11;17.55;;;8.38;;
27979;SDS011;15315;50.836;4.430;2023-02-28T06:26:12;26.80;;;9.82;;
27979;SDS011;15315;50.836;4.430;2023-02-28T06:36:13;17.35;;;7.85;;
27979;SDS011;15315;50.836;4.430;2023-02-28T06:46:14;18.58;;;8.75;;
27979;SDS011;15315;50.836;4.430;2023-02-28T06:56:15;15.43;;;8.38;;
27979;SDS011;15315;50.836;4.430;2023-02-28T07:06:21;14.60;;;8.43;;
27979;SDS011;15315;50.836;4.430;2023-02-28T07:16:23;15.98;;;8.35;;
27979;SDS011;15315;50.836;4.430;2023-02-28T07:26:24;16.60;;;7.78;;
27979;SDS011;15315;50.836;4.430;2023-02-28T07:36:24;17.38;;;8.68;;
27979;SDS011;15315;50.836;4.430;2023-02-28T07:46:25;16.73;;;8.02;;
27979;SDS011;15315;50.836;4.430;2023-02-28T07:56:26;15.23;;;6.72;;
27979;SDS011;15315;50.836;4.430;2023-02-28T08:06:26;18.92;;;6.03;;
27979;SDS011;15315;50.836;4.430;2023-02-28T08:16:27;16.25;;;6.35;;
27979;SDS011;15315;50.836;4.430;2023-02-28T08:26:27;13.80;;;5.25;;
27979;SDS011;15315;50.836;4.430;2023-02-28T08:36:27;13.55;;;6.80;;
27979;SDS011;15315;50.836;4.430;2023-02-28T08:46:28;7.50;;;4.97;;
27979;SDS011;15315;50.836;4.430;2023-02-28T08:56:29;8.32;;;4.32;;
27979;SDS011;15315;50.836;4.430;2023-02-28T09:06:30;10.45;;;4.30;;
27979;SDS011;15315;50.836;4.430;2023-02-28T09:16:32;6.28;;;3.90;;
27979;SDS011;15315;50.836;4.430;2023-02-28T09:26:32;10.30;;;3.58;;
27979;SDS011;15315;50.836;4.430;2023-02-28T09:36:34;7.80;;;3.00;;
27979;SDS011;15315;50.836;4.430;2023-02-28T09:46:40;9.40;;;3.35;;
27979;SDS011;15315;50.836;4.430;2023-02-28T09:56:45;9.27;;;3.17;;
27979;SDS011;15315;50.836;4.430;2023-02-28T10:06:52;3.75;;;2.20;;
27979;SDS011;15315;50.836;4.430;2023-02-28T10:27:21;3.03;;;1.90;;
27979;SDS011;15315;50.836;4.430;2023-02-28T10:37:27;4.88;;;2.25;;
27979;SDS011;15315;50.836;4.430;2023-02-28T10:57:33;11.43;;;2.65;;
27979;SDS011;15315;50.836;4.430;2023-02-28T11:17:39;6.03;;;2.50;;
27979;SDS011;15315;50.836;4.430;2023-02-28T11:27:50;7.45;;;2.40;;
27979;SDS011;15315;50.836;4.430;2023-02-28T11:37:52;4.25;;;2.20;;
27979;SDS011;15315;50.836;4.430;2023-02-28T11:48:04;7.70;;;2.80;;
27979;SDS011;15315;50.836;4.430;2023-02-28T12:08:53;5.10;;;2.28;;
27979;SDS011;15315;50.836;4.430;2023-02-28T12:19:16;4.10;;;2.00;;
27979;SDS011;15315;50.836;4.430;2023-02-28T12:39:30;3.55;;;2.17;;
27979;SDS011;15315;50.836;4.430;2023-02-28T12:50:09;8.02;;;2.08;;
27979;SDS011;15315;50.836;4.430;2023-02-28T13:00:16;11.80;;;3.78;;
27979;SDS011;15315;50.836;4.430;2023-02-28T13:10:19;7.15;;;2.45;;
27979;SDS011;15315;50.836;4.430;2023-02-28T13:20:21;3.60;;;2.38;;
27979;SDS011;15315;50.836;4.430;2023-02-28T13:51:41;8.57;;;4.10;;
27979;SDS011;15315;50.836;4.430;2023-02-28T14:02:12;5.70;;;2.50;;
27979;SDS011;15315;50.836;4.430;2023-02-28T14:23:06;5.07;;;2.80;;
27979;SDS011;15315;50.836;4.430;2023-02-28T14:33:23;7.35;;;2.53;;
27979;SDS011;15315;50.836;4.430;2023-02-28T14:43:53;8.70;;;2.30;;
27979;SDS011;15315;50.836;4.430;2023-02-28T14:53:59;6.35;;;2.38;;
27979;SDS011;15315;50.836;4.430;2023-02-28T15:04:03;6.03;;;2.50;;
27979;SDS011;15315;50.836;4.430;2023-02-28T15:14:05;5.60;;;2.40;;
27979;SDS011;15315;50.836;4.430;2023-02-28T15:24:07;6.22;;;2.78;;
27979;SDS011;15315;50.836;4.430;2023-02-28T15:34:21;9.40;;;3.05;;
27979;SDS011;15315;50.836;4.430;2023-02-28T15:44:38;4.53;;;2.80;;
27979;SDS011;15315;50.836;4.430;2023-02-28T15:54:38;11.05;;;2.38;;
27979;SDS011;15315;50.836;4.430;2023-02-28T16:04:54;5.25;;;2.58;;
27979;SDS011;15315;50.836;4.430;2023-02-28T16:15:20;5.45;;;2.47;;
27979;SDS011;15315;50.836;4.430;2023-02-28T16:25:24;6.70;;;2.90;;
27979;SDS011;15315;50.836;4.430;2023-02-28T16:35:32;5.38;;;2.67;;
27979;SDS011;15315;50.836;4.430;2023-02-28T16:45:33;6.38;;;2.72;;
27979;SDS011;15315;50.836;4.430;2023-02-28T16:55:33;9.60;;;2.83;;
27979;SDS011;15315;50.836;4.430;2023-02-28T17:05:36;3.75;;;2.63;;
27979;SDS011;15315;50.836;4.430;2023-02-28T17:15:39;4.67;;;2.77;;
27979;SDS011;15315;50.836;4.430;2023-02-28T17:25:40;7.88;;;3.13;;
27979;SDS011;15315;50.836;4.430;2023-02-28T17:35:40;7.43;;;3.10;;
27979;SDS011;15315;50.836;4.430;2023-02-28T17:45:41;7.93;;;2.97;;
27979;SDS011;15315;50.836;4.430;2023-02-28T17:55:41;5.88;;;3.08;;
27979;SDS011;15315;50.836;4.430;2023-02-28T18:05:42;13.70;;;3.33;;
27979;SDS011;15315;50.836;4.430;2023-02-28T18:15:42;8.10;;;3.38;;
27979;SDS011;15315;50.836;4.430;2023-02-28T18:25:42;8.98;;;3.80;;
27979;SDS011;15315;50.836;4.430;2023-02-28T18:35:43;11.57;;;4.13;;
27979;SDS011;15315;50.836;4.430;2023-02-28T18:45:43;8.25;;;3.65;;
27979;SDS011;15315;50.836;4.430;2023-02-28T18:55:44;10.88;;;5.55;;
27979;SDS011;15315;50.836;4.430;2023-02-28T19:05:44;15.52;;;5.20;;
27979;SDS011;15315;50.836;4.430;2023-02-28T19:15:46;9.20;;;4.25;;
27979;SDS011;15315;50.836;4.430;2023-02-28T19:25:47;8.95;;;4.50;;
27979;SDS011;15315;50.836;4.430;2023-02-28T19:35:47;10.65;;;5.53;;
27979;SDS011;15315;50.836;4.430;2023-02-28T19:45:47;13.43;;;6.57;;
27979;SDS011;15315;50.836;4.430;2023-02-28T19:55:48;13.63;;;6.28;;
27979;SDS011;15315;50.836;4.430;2023-02-28T20:05:58;10.25;;;5.72;;
27979;SDS011;15315;50.836;4.430;2023-02-28T20:16:01;18.23;;;7.70;;
27979;SDS011;15315;50.836;4.430;2023-02-28T20:26:05;15.48;;;7.60;;
27979;SDS011;15315;50.836;4.430;2023-02-28T20:36:06;11.95;;;6.63;;
27979;SDS011;15315;50.836;4.430;2023-02-28T20:46:09;14.63;;;7.35;;
27979;SDS011;15315;50.836;4.430;2023-02-28T20:56:10;11.50;;;6.75;;
27979;SDS011;15315;50.836;4.430;2023-02-28T21:06:19;13.40;;;6.20;;
27979;SDS011;15315;50.836;4.430;2023-02-28T21:16:22;15.07;;;7.35;;
27979;SDS011;15315;50.836;4.430;2023-02-28T21:26:24;16.23;;;8.30;;
27979;SDS011;15315;50.836;4.430;2023-02-28T21:36:27;12.35;;;7.43;;
27979;SDS011;15315;50.836;4.430;2023-02-28T21:46:31;15.88;;;7.82;;
27979;SDS011;15315;50.836;4.430;2023-02-28T21:56:32;12.65;;;7.88;;
27979;SDS011;15315;50.836;4.430;2023-02-28T22:06:37;13.13;;;7.80;;
27979;SDS011;15315;50.836;4.430;2023-02-28T22:16:40;13.30;;;8.03;;
27979;SDS011;15315;50.836;4.430;2023-02-28T22:26:44;18.40;;;9.13;;
27979;SDS011;15315;50.836;4.430;2023-02-28T22:36:47;17.17;;;8.93;;
27979;SDS011;15315;50.836;4.430;2023-02-28T22:46:59;13.88;;;8.30;;
27979;SDS011;15315;50.836;4.430;2023-02-28T22:57:02;16.42;;;8.38;;
27979;SDS011;15315;50.836;4.430;2023-02-28T23:07:03;16.80;;;7.63;;
27979;SDS011;15315;50.836;4.430;2023-02-28T23:17:06;14.05;;;8.70;;
27979;SDS011;15315;50.836;4.430;2023-02-28T23:27:07;20.27;;;9.43;;
27979;SDS011;15315;50.836;4.430;2023-02-28T23:37:08;19.45;;;8.95;;
27979;SDS011;15315;50.836;4.430;2023-02-28T23:47:08;21.20;;;9.50;;
27979;SDS011;15315;50.836;4.430;2023-02-28T23:57:12;14.65;;;9.18;;
